createdAt,value
2023-05-08T00:01:31.367Z,15.02
2023-05-08T00:03:59.084Z,17.23
2023-05-08T00:06:27.818Z,15.63
2023-05-08T00:08:55.865Z,17.67
2023-05-08T00:11:23.067Z,16.55
2023-05-08T00:13:50.006Z,16.80
2023-05-08T00:16:17.156Z,18.23
2023-05-08T00:18:44.253Z,18.25
2023-05-08T00:21:11.259Z,17.45
2023-05-08T00:23:38.274Z,18.35
2023-05-08T00:26:05.523Z,17.83
2023-05-08T00:28:32.405Z,18.20
2023-05-08T00:31:02.638Z,19.48
2023-05-08T00:33:29.816Z,17.27
2023-05-08T00:36:04.330Z,20.73
2023-05-08T00:38:33.355Z,20.13
2023-05-08T00:41:01.649Z,20.38
2023-05-08T00:43:29.622Z,21.00
2023-05-08T00:45:59.603Z,19.25
2023-05-08T00:48:30.695Z,17.65
2023-05-08T00:50:59.236Z,18.73
2023-05-08T00:53:27.658Z,17.67
2023-05-08T00:55:56.022Z,17.52
2023-05-08T00:58:26.338Z,13.65
2023-05-08T01:00:56.299Z,13.63
2023-05-08T01:03:24.278Z,12.82
2023-05-08T01:05:51.405Z,12.63
2023-05-08T01:08:18.382Z,11.32
2023-05-08T01:11:09.533Z,14.20
2023-05-08T01:13:39.826Z,15.40
2023-05-08T01:16:16.367Z,15.93
2023-05-08T01:18:57.017Z,14.45
2023-05-08T01:21:51.680Z,12.80
2023-05-08T01:24:59.000Z,11.38
2023-05-08T01:28:16.611Z,12.50
2023-05-08T01:31:08.820Z,9.05
2023-05-08T01:33:44.183Z,7.47
2023-05-08T01:36:34.120Z,8.05
2023-05-08T01:39:15.202Z,6.47
2023-05-08T01:41:58.268Z,8.07
2023-05-08T01:44:35.482Z,8.50
2023-05-08T01:47:07.910Z,7.80
2023-05-08T01:49:43.714Z,6.57
2023-05-08T01:52:37.316Z,6.72
2023-05-08T01:55:10.871Z,6.13
2023-05-08T01:57:46.221Z,8.18
2023-05-08T02:00:18.281Z,8.75
2023-05-08T02:02:46.912Z,10.07
2023-05-08T02:05:15.017Z,9.40
2023-05-08T02:07:44.267Z,9.68
2023-05-08T02:10:13.309Z,10.13
2023-05-08T02:12:42.616Z,10.55
2023-05-08T02:15:13.743Z,7.85
2023-05-08T02:17:42.399Z,8.15
2023-05-08T02:20:14.867Z,9.85
2023-05-08T02:22:45.534Z,7.63
2023-05-08T02:25:14.912Z,6.85
2023-05-08T02:27:46.110Z,7.90
2023-05-08T02:30:16.104Z,8.50
2023-05-08T02:32:45.364Z,9.25
2023-05-08T02:35:18.822Z,8.25
2023-05-08T02:37:52.008Z,8.50
2023-05-08T02:40:22.826Z,10.30
2023-05-08T02:42:50.201Z,8.70
2023-05-08T02:45:17.395Z,8.57
2023-05-08T02:48:05.599Z,9.18
2023-05-08T02:50:45.174Z,9.70
2023-05-08T02:53:20.454Z,9.85
2023-05-08T02:55:52.367Z,8.95
2023-05-08T02:58:31.839Z,9.68
2023-05-08T03:01:07.724Z,8.43
2023-05-08T03:03:45.847Z,9.05
2023-05-08T03:06:21.978Z,8.80
2023-05-08T03:08:51.861Z,8.50
2023-05-08T03:11:24.714Z,9.13
2023-05-08T03:13:57.442Z,9.70
2023-05-08T03:16:28.244Z,10.20
2023-05-08T03:19:01.429Z,8.85
2023-05-08T03:21:30.901Z,9.32
2023-05-08T03:24:01.147Z,8.02
2023-05-08T03:26:29.024Z,8.23
2023-05-08T03:28:57.036Z,7.78
2023-05-08T03:31:28.677Z,8.63
2023-05-08T03:33:57.134Z,8.20
2023-05-08T03:36:27.079Z,7.97
2023-05-08T03:38:55.268Z,8.05
2023-05-08T03:41:25.812Z,7.82
2023-05-08T03:43:55.253Z,9.20
2023-05-08T03:46:23.339Z,8.20
2023-05-08T03:48:51.741Z,9.65
2023-05-08T03:51:19.731Z,12.80
2023-05-08T03:53:46.964Z,10.20
2023-05-08T03:56:14.818Z,9.40
2023-05-08T03:59:09.252Z,10.20
2023-05-08T04:01:46.088Z,10.80
2023-05-08T04:04:41.339Z,11.25
2023-05-08T04:07:26.962Z,11.15
2023-05-08T04:10:31.263Z,11.20
2023-05-08T04:13:14.341Z,10.60
2023-05-08T04:15:55.181Z,10.30
2023-05-08T04:18:35.206Z,11.15
2023-05-08T04:21:10.089Z,13.02
2023-05-08T04:23:41.489Z,12.63
2023-05-08T04:26:11.228Z,12.68
2023-05-08T04:28:39.224Z,12.63
2023-05-08T04:31:07.857Z,13.73
2023-05-08T04:33:39.404Z,12.45
2023-05-08T04:36:13.825Z,13.00
2023-05-08T04:38:44.189Z,11.32
2023-05-08T04:41:12.520Z,11.35
2023-05-08T04:43:39.767Z,11.75
2023-05-08T04:46:08.085Z,12.52
2023-05-08T04:48:35.142Z,12.80
2023-05-08T04:51:02.358Z,12.52
2023-05-08T04:53:29.601Z,12.50
2023-05-08T04:55:58.657Z,12.27
2023-05-08T04:58:28.978Z,12.18
2023-05-08T05:00:56.502Z,11.48
2023-05-08T05:03:23.839Z,16.17
2023-05-08T05:05:59.030Z,12.35
2023-05-08T05:08:26.817Z,17.17
2023-05-08T05:10:54.689Z,12.70
2023-05-08T05:13:21.862Z,11.05
2023-05-08T05:15:51.377Z,12.38
2023-05-08T05:18:18.589Z,13.35
2023-05-08T05:20:46.385Z,13.13
2023-05-08T05:23:13.921Z,12.90
2023-05-08T05:25:40.884Z,11.18
2023-05-08T05:28:07.871Z,12.55
2023-05-08T05:30:35.212Z,11.27
2023-05-08T05:33:02.538Z,13.38
2023-05-08T05:35:29.678Z,12.20
2023-05-08T05:37:57.436Z,11.30
2023-05-08T05:40:24.542Z,11.07
2023-05-08T05:42:51.712Z,10.52
2023-05-08T05:45:19.562Z,11.07
2023-05-08T05:47:50.639Z,10.27
2023-05-08T05:50:21.712Z,11.43
2023-05-08T05:52:49.962Z,10.13
2023-05-08T05:55:17.401Z,9.00
2023-05-08T05:57:47.471Z,9.48
2023-05-08T06:00:16.722Z,9.32
2023-05-08T06:02:49.358Z,8.73
2023-05-08T06:05:19.190Z,7.45
2023-05-08T06:07:46.477Z,9.85
2023-05-08T06:10:13.508Z,8.73
2023-05-08T06:12:40.695Z,6.55
2023-05-08T06:15:09.882Z,7.50
2023-05-08T06:17:37.463Z,7.45
2023-05-08T06:20:05.697Z,8.75
2023-05-08T06:22:33.025Z,9.13
2023-05-08T06:25:00.172Z,7.80
2023-05-08T06:27:30.120Z,8.25
2023-05-08T06:29:57.119Z,8.32
2023-05-08T06:32:24.179Z,8.93
2023-05-08T06:34:51.161Z,8.63
2023-05-08T06:37:18.546Z,7.70
2023-05-08T06:39:45.597Z,7.47
2023-05-08T06:42:12.566Z,8.93
2023-05-08T06:44:40.908Z,7.55
2023-05-08T06:47:08.792Z,8.85
2023-05-08T06:49:37.109Z,8.30
2023-05-08T06:52:04.709Z,8.63
2023-05-08T06:54:31.868Z,8.23
2023-05-08T06:56:59.177Z,8.88
2023-05-08T06:59:26.928Z,9.13
2023-05-08T07:01:54.222Z,7.40
2023-05-08T07:04:21.493Z,8.90
2023-05-08T07:06:48.457Z,7.20
2023-05-08T07:09:17.144Z,7.95
2023-05-08T07:11:44.573Z,7.45
2023-05-08T07:14:11.649Z,7.63
2023-05-08T07:16:38.682Z,8.32
2023-05-08T07:19:05.702Z,7.80
2023-05-08T07:21:32.724Z,7.47
2023-05-08T07:23:59.890Z,20.92
2023-05-08T07:26:27.459Z,6.97
2023-05-08T07:28:54.584Z,6.20
2023-05-08T07:31:22.309Z,7.10
2023-05-08T07:33:49.557Z,7.00
2023-05-08T07:36:16.801Z,7.65
2023-05-08T07:38:43.830Z,9.07
2023-05-08T07:41:10.879Z,6.00
2023-05-08T07:43:38.164Z,5.22
2023-05-08T07:46:05.943Z,5.38
2023-05-08T07:48:32.990Z,7.22
2023-05-08T07:51:00.158Z,6.60
2023-05-08T07:53:27.531Z,6.03
2023-05-08T07:55:54.778Z,5.65
2023-05-08T07:58:23.926Z,5.63
2023-05-08T08:00:51.463Z,5.43
2023-05-08T08:03:18.770Z,6.07
2023-05-08T08:05:45.921Z,6.18
2023-05-08T08:08:12.894Z,5.95
2023-05-08T08:10:39.880Z,3.90
2023-05-08T08:13:07.202Z,4.63
2023-05-08T08:15:34.325Z,5.25
2023-05-08T08:18:01.770Z,3.65
2023-05-08T08:20:29.298Z,4.13
2023-05-08T08:22:56.370Z,4.78
2023-05-08T08:25:24.661Z,4.50
2023-05-08T08:27:52.239Z,4.00
2023-05-08T08:30:19.304Z,4.18
2023-05-08T08:32:46.772Z,3.78
2023-05-08T08:35:14.574Z,4.28
2023-05-08T08:37:42.121Z,6.68
2023-05-08T08:40:09.657Z,6.75
2023-05-08T08:42:37.183Z,7.40
2023-05-08T08:45:05.030Z,8.82
2023-05-08T08:47:41.488Z,7.25
2023-05-08T08:50:12.867Z,6.97
2023-05-08T08:53:07.009Z,6.63
2023-05-08T08:55:40.551Z,6.47
2023-05-08T08:58:14.079Z,11.43
2023-05-08T09:00:42.189Z,7.93
2023-05-08T09:03:10.103Z,7.88
2023-05-08T09:05:38.651Z,7.53
2023-05-08T09:08:07.198Z,11.45
2023-05-08T09:10:36.380Z,8.38
2023-05-08T09:13:05.175Z,7.13
2023-05-08T09:15:33.859Z,5.70
2023-05-08T09:18:04.275Z,6.95
2023-05-08T09:20:32.065Z,5.40
2023-05-08T09:23:03.888Z,4.25
2023-05-08T09:25:45.386Z,5.63
2023-05-08T09:28:25.924Z,5.60
2023-05-08T09:30:55.047Z,7.18
2023-05-08T09:33:26.121Z,6.22
2023-05-08T09:35:54.835Z,10.05
2023-05-08T09:38:42.096Z,11.63
2023-05-08T09:41:15.644Z,10.45
2023-05-08T09:43:44.975Z,7.32
2023-05-08T09:46:27.088Z,8.18
2023-05-08T09:48:58.813Z,7.72
2023-05-08T09:51:29.823Z,6.97
2023-05-08T09:53:59.519Z,8.88
2023-05-08T09:56:40.233Z,17.77
2023-05-08T09:59:28.818Z,13.63
2023-05-08T10:01:56.554Z,9.80
2023-05-08T10:04:37.456Z,8.07
2023-05-08T10:07:05.096Z,8.65
2023-05-08T10:09:43.036Z,8.85
2023-05-08T10:12:14.565Z,9.63
2023-05-08T10:14:43.572Z,10.57
2023-05-08T10:17:12.331Z,9.43
2023-05-08T10:19:45.041Z,6.82
2023-05-08T10:22:15.394Z,7.47
2023-05-08T10:24:44.660Z,7.13
2023-05-08T10:27:18.343Z,7.70
2023-05-08T10:29:56.529Z,8.77
2023-05-08T10:32:24.928Z,7.43
2023-05-08T10:35:04.124Z,7.50
2023-05-08T10:37:33.877Z,8.07
2023-05-08T10:40:03.135Z,7.75
2023-05-08T10:42:30.323Z,8.07
2023-05-08T10:44:57.770Z,6.70
2023-05-08T10:47:34.204Z,4.70
2023-05-08T10:50:23.476Z,4.53
2023-05-08T10:53:08.074Z,3.90
2023-05-08T10:55:41.398Z,3.05
2023-05-08T10:58:28.623Z,3.00
2023-05-08T11:01:03.709Z,2.38
2023-05-08T11:03:33.501Z,2.50
2023-05-08T11:06:01.818Z,2.53
2023-05-08T11:08:32.595Z,2.70
2023-05-08T11:11:04.840Z,2.60
2023-05-08T11:13:37.452Z,2.28
2023-05-08T11:16:11.147Z,2.83
2023-05-08T11:21:23.824Z,2.30
2023-05-08T11:24:00.606Z,3.17
2023-05-08T11:26:40.970Z,3.10
2023-05-08T11:29:17.928Z,2.80
2023-05-08T11:31:52.841Z,3.40
2023-05-08T11:34:44.846Z,2.40
2023-05-08T11:37:22.941Z,2.00
2023-05-08T11:39:50.841Z,1.90
2023-05-08T11:42:29.325Z,1.88
2023-05-08T11:45:09.051Z,1.70
2023-05-08T11:47:43.559Z,1.90
2023-05-08T11:50:14.551Z,1.63
2023-05-08T11:52:43.234Z,2.38
2023-05-08T11:55:14.000Z,1.92
2023-05-08T11:57:41.340Z,1.70
2023-05-08T12:00:12.026Z,1.50
2023-05-08T12:02:46.106Z,1.80
2023-05-08T12:07:44.924Z,2.40
2023-05-08T12:10:16.123Z,1.98
2023-05-08T12:12:45.343Z,5.22
2023-05-08T12:15:15.088Z,2.40
2023-05-08T12:17:42.891Z,2.33
2023-05-08T12:20:15.424Z,1.75
2023-05-08T12:22:50.537Z,2.70
2023-05-08T12:25:18.932Z,2.47
2023-05-08T12:27:46.403Z,4.05
2023-05-08T12:30:15.054Z,3.42
2023-05-08T12:32:43.861Z,5.75
2023-05-08T12:35:13.326Z,3.22
2023-05-08T12:37:40.885Z,3.65
2023-05-08T12:40:17.449Z,3.45
2023-05-08T12:42:51.197Z,5.25
2023-05-08T12:47:56.236Z,3.45
2023-05-08T12:50:23.805Z,2.95
2023-05-08T12:52:51.790Z,5.07
2023-05-08T12:55:25.046Z,5.80
2023-05-08T12:58:15.609Z,4.50
2023-05-08T13:00:49.759Z,4.32
2023-05-08T13:03:29.197Z,4.28
2023-05-08T13:05:58.768Z,3.88
2023-05-08T13:08:33.561Z,3.58
2023-05-08T13:11:03.101Z,2.60
2023-05-08T13:13:33.899Z,3.72
2023-05-08T13:16:06.677Z,4.28
2023-05-08T13:18:36.824Z,6.65
2023-05-08T13:21:04.382Z,2.55
2023-05-08T13:23:31.351Z,2.10
2023-05-08T13:25:58.345Z,2.47
2023-05-08T13:28:25.379Z,2.42
2023-05-08T13:30:53.313Z,2.28
2023-05-08T13:33:21.708Z,1.75
2023-05-08T13:35:49.002Z,2.88
2023-05-08T13:38:15.984Z,4.43
2023-05-08T13:40:43.075Z,1.20
2023-05-08T13:43:10.067Z,0.82
2023-05-08T13:45:37.296Z,1.70
2023-05-08T13:48:04.745Z,2.95
2023-05-08T13:50:31.970Z,0.57
2023-05-08T13:52:59.237Z,2.28
2023-05-08T13:55:26.599Z,0.50
2023-05-08T13:57:53.655Z,1.02
2023-05-08T14:00:20.815Z,2.30
2023-05-08T14:02:49.395Z,2.13
2023-05-08T14:05:17.916Z,1.58
2023-05-08T14:07:45.919Z,3.00
2023-05-08T14:10:13.084Z,2.92
2023-05-08T14:12:40.670Z,0.80
2023-05-08T14:15:12.096Z,1.80
2023-05-08T14:17:39.850Z,0.82
2023-05-08T14:20:08.045Z,0.55
2023-05-08T14:22:36.104Z,1.23
2023-05-08T14:25:03.364Z,0.52
2023-05-08T14:27:30.948Z,22.30
2023-05-08T14:29:58.139Z,0.47
2023-05-08T14:32:25.378Z,0.85
2023-05-08T14:34:52.474Z,0.52
2023-05-08T14:37:20.201Z,1.42
2023-05-08T14:39:47.239Z,0.95
2023-05-08T14:42:23.018Z,1.75
2023-05-08T14:44:51.640Z,0.88
2023-05-08T14:47:18.640Z,1.63
2023-05-08T14:49:45.749Z,0.60
2023-05-08T14:52:12.806Z,2.25
2023-05-08T14:54:40.036Z,3.80
2023-05-08T14:57:07.219Z,2.13
2023-05-08T14:59:34.530Z,1.48
2023-05-08T15:02:01.745Z,3.10
2023-05-08T15:04:28.864Z,2.60
2023-05-08T15:06:55.877Z,6.32
2023-05-08T15:09:22.882Z,4.25
2023-05-08T15:11:50.082Z,5.47
2023-05-08T15:14:17.502Z,3.38
2023-05-08T15:16:44.570Z,8.02
2023-05-08T15:19:11.654Z,4.63
2023-05-08T15:21:38.682Z,3.90
2023-05-08T15:24:06.544Z,4.03
2023-05-08T15:26:33.590Z,4.20
2023-05-08T15:29:00.617Z,4.07
2023-05-08T15:31:27.707Z,5.53
2023-05-08T15:33:55.025Z,3.40
2023-05-08T15:36:22.496Z,2.55
2023-05-08T15:38:49.778Z,3.38
2023-05-08T15:41:16.734Z,4.00
2023-05-08T15:43:45.383Z,3.63
2023-05-08T15:46:12.562Z,2.92
2023-05-08T15:48:39.882Z,2.88
2023-05-08T15:51:06.978Z,2.95
2023-05-08T15:53:34.867Z,3.47
2023-05-08T15:56:01.878Z,2.97
2023-05-08T15:58:29.083Z,2.50
2023-05-08T16:00:57.721Z,2.90
2023-05-08T16:03:25.057Z,3.05
2023-05-08T16:05:52.120Z,4.75
2023-05-08T16:08:19.735Z,4.30
2023-05-08T16:10:46.839Z,3.30
2023-05-08T16:13:14.178Z,5.10
2023-05-08T16:15:41.422Z,3.78
2023-05-08T16:18:08.445Z,4.30
2023-05-08T16:20:36.448Z,4.45
2023-05-08T16:23:03.723Z,3.60
2023-05-08T16:25:31.419Z,5.85
2023-05-08T16:27:59.473Z,6.32
2023-05-08T16:30:26.623Z,5.55
2023-05-08T16:32:53.673Z,5.13
2023-05-08T16:35:20.868Z,5.70
2023-05-08T16:37:48.722Z,4.78
2023-05-08T16:40:15.964Z,6.00
2023-05-08T16:42:43.016Z,3.60
2023-05-08T16:45:10.945Z,5.82
2023-05-08T16:47:38.059Z,4.40
2023-05-08T16:50:06.171Z,4.75
2023-05-08T16:52:33.337Z,4.95
2023-05-08T16:55:01.401Z,8.15
2023-05-08T16:57:29.042Z,5.82
2023-05-08T16:59:56.416Z,5.68
2023-05-08T17:02:23.558Z,4.93
2023-05-08T17:04:51.015Z,4.10
2023-05-08T17:07:18.447Z,3.00
2023-05-08T17:09:48.302Z,3.92
2023-05-08T17:12:15.435Z,2.88
2023-05-08T17:14:42.915Z,1.33
2023-05-08T17:17:09.978Z,3.53
2023-05-08T17:19:37.492Z,2.35
2023-05-08T17:22:04.582Z,0.90
2023-05-08T17:24:32.744Z,0.80
2023-05-08T17:26:59.997Z,2.15
2023-05-08T17:29:27.043Z,1.80
2023-05-08T17:31:54.142Z,1.23
2023-05-08T17:34:22.832Z,1.25
2023-05-08T17:36:50.191Z,1.63
2023-05-08T17:39:20.013Z,1.65
2023-05-08T17:41:50.404Z,2.65
2023-05-08T17:44:20.523Z,7.63
2023-05-08T17:46:47.778Z,1.77
2023-05-08T17:49:17.061Z,1.27
2023-05-08T17:51:45.842Z,1.35
2023-05-08T17:54:12.876Z,1.13
2023-05-08T17:56:39.881Z,1.60
2023-05-08T17:59:07.110Z,2.70
2023-05-08T18:01:34.269Z,1.63
2023-05-08T18:04:01.237Z,1.75
2023-05-08T18:06:28.590Z,2.42
2023-05-08T18:08:55.766Z,2.25
2023-05-08T18:11:25.527Z,2.88
2023-05-08T18:13:54.403Z,5.72
2023-05-08T18:16:22.566Z,3.55
2023-05-08T18:18:50.187Z,4.22
2023-05-08T18:21:17.391Z,4.60
2023-05-08T18:23:44.652Z,3.60
2023-05-08T18:26:16.298Z,3.33
2023-05-08T18:28:44.435Z,2.83
2023-05-08T18:31:12.251Z,3.00
2023-05-08T18:33:39.659Z,5.20
2023-05-08T18:36:07.209Z,7.07
2023-05-08T18:38:35.631Z,3.65
2023-05-08T18:41:05.115Z,6.82
2023-05-08T18:43:32.110Z,5.15
2023-05-08T18:46:00.598Z,3.20
2023-05-08T18:48:28.302Z,4.00
2023-05-08T18:50:58.752Z,3.00
2023-05-08T18:53:25.898Z,2.92
2023-05-08T18:55:53.150Z,3.13
2023-05-08T18:58:20.394Z,2.95
2023-05-08T19:00:48.192Z,5.07
2023-05-08T19:03:18.636Z,2.50
2023-05-08T19:05:51.636Z,2.85
2023-05-08T19:08:25.167Z,3.42
2023-05-08T19:10:56.705Z,2.50
2023-05-08T19:13:34.744Z,1.75
2023-05-08T19:16:06.383Z,2.22
2023-05-08T19:18:33.442Z,4.93
2023-05-08T19:21:02.018Z,3.38
2023-05-08T19:23:29.195Z,4.38
2023-05-08T19:25:56.195Z,2.25
2023-05-08T19:28:23.156Z,4.93
2023-05-08T19:30:50.096Z,2.85
2023-05-08T19:33:21.176Z,4.40
2023-05-08T19:35:49.049Z,2.45
2023-05-08T19:38:16.145Z,2.03
2023-05-08T19:40:55.417Z,2.40
2023-05-08T19:43:24.882Z,3.60
2023-05-08T19:45:52.277Z,2.83
2023-05-08T19:48:20.199Z,3.22
2023-05-08T19:50:47.945Z,4.53
2023-05-08T19:53:15.230Z,5.63
2023-05-08T19:55:42.582Z,4.00
2023-05-08T19:58:09.844Z,5.22
2023-05-08T20:00:37.384Z,4.75
2023-05-08T20:03:05.150Z,5.20
2023-05-08T20:05:32.568Z,8.00
2023-05-08T20:07:59.992Z,5.28
2023-05-08T20:10:27.099Z,5.90
2023-05-08T20:12:54.111Z,7.50
2023-05-08T20:15:21.255Z,7.00
2023-05-08T20:17:48.310Z,6.03
2023-05-08T20:20:16.375Z,6.13
2023-05-08T20:22:43.556Z,8.73
2023-05-08T20:25:10.956Z,7.57
2023-05-08T20:27:38.066Z,8.02
2023-05-08T20:30:06.739Z,11.60
2023-05-08T20:32:33.722Z,13.02
2023-05-08T20:35:00.936Z,8.63
2023-05-08T20:37:27.938Z,8.95
2023-05-08T20:39:55.448Z,9.20
2023-05-08T20:42:22.658Z,9.50
2023-05-08T20:44:49.637Z,10.00
2023-05-08T20:47:16.601Z,10.18
2023-05-08T20:49:43.583Z,9.77
2023-05-08T20:52:10.553Z,10.15
2023-05-08T20:54:37.561Z,10.80
2023-05-08T20:57:04.608Z,13.50
2023-05-08T20:59:31.592Z,10.70
2023-05-08T21:01:58.678Z,11.02
2023-05-08T21:04:25.778Z,12.00
2023-05-08T21:06:52.859Z,11.43
2023-05-08T21:09:19.878Z,10.23
2023-05-08T21:11:46.798Z,12.25
2023-05-08T21:14:14.135Z,11.10
2023-05-08T21:16:41.283Z,10.93
2023-05-08T21:19:09.973Z,11.40
2023-05-08T21:21:36.977Z,12.02
2023-05-08T21:24:04.372Z,10.05
2023-05-08T21:26:31.436Z,11.25
2023-05-08T21:28:59.371Z,11.10
2023-05-08T21:31:28.882Z,10.13
2023-05-08T21:33:56.039Z,11.27
2023-05-08T21:36:23.143Z,11.48
2023-05-08T21:38:50.094Z,12.13
2023-05-08T21:41:17.078Z,10.52
2023-05-08T21:43:44.110Z,10.95
2023-05-08T21:46:11.123Z,11.27
2023-05-08T21:48:38.172Z,11.07
2023-05-08T21:51:06.258Z,15.07
2023-05-08T21:53:33.219Z,12.75
2023-05-08T21:56:00.281Z,12.65
2023-05-08T21:58:27.183Z,12.70
2023-05-08T22:00:54.859Z,12.98
2023-05-08T22:03:23.073Z,11.77
2023-05-08T22:05:50.190Z,13.70
2023-05-08T22:08:17.157Z,13.50
2023-05-08T22:10:44.395Z,14.48
2023-05-08T22:13:13.431Z,13.13
2023-05-08T22:15:40.704Z,13.63
2023-05-08T22:18:07.805Z,13.80
2023-05-08T22:20:34.965Z,13.43
2023-05-08T22:23:02.074Z,14.10
2023-05-08T22:25:29.232Z,13.95
2023-05-08T22:27:56.260Z,13.98
2023-05-08T22:30:23.239Z,14.55
2023-05-08T22:32:57.263Z,15.93
2023-05-08T22:35:27.283Z,15.60
2023-05-08T22:37:55.297Z,15.40
2023-05-08T22:40:23.014Z,16.80
2023-05-08T22:42:51.828Z,17.70
2023-05-08T22:45:19.631Z,20.05
2023-05-08T22:47:46.813Z,15.80
2023-05-08T22:50:14.440Z,16.25
2023-05-08T22:52:41.419Z,18.20
2023-05-08T22:55:09.793Z,18.20
2023-05-08T22:57:37.579Z,17.85
2023-05-08T23:00:07.277Z,18.92
2023-05-08T23:02:35.565Z,19.17
2023-05-08T23:05:02.877Z,18.70
2023-05-08T23:07:30.451Z,19.58
2023-05-08T23:09:57.525Z,19.95
2023-05-08T23:12:24.856Z,19.35
2023-05-08T23:14:52.186Z,20.08
2023-05-08T23:17:19.282Z,18.50
2023-05-08T23:19:46.334Z,20.30
2023-05-08T23:22:13.297Z,20.42
2023-05-08T23:24:40.339Z,20.52
2023-05-08T23:27:07.379Z,19.23
2023-05-08T23:29:34.456Z,22.35
2023-05-08T23:32:01.511Z,19.88
2023-05-08T23:34:28.732Z,20.80
2023-05-08T23:36:55.786Z,20.75
2023-05-08T23:39:22.890Z,19.45
2023-05-08T23:41:49.972Z,19.05
2023-05-08T23:44:17.897Z,19.73
2023-05-08T23:46:46.353Z,19.65
2023-05-08T23:49:13.501Z,18.10
2023-05-08T23:51:40.524Z,17.83
2023-05-08T23:54:07.558Z,18.50
2023-05-08T23:56:34.706Z,17.38
2023-05-08T23:59:02.028Z,17.65
